Central Mexico City, Mexico

5:21 AM CST on January 18, 2017 (GMT -0600)
POLANCO | | Change Station

Elev 7480 ft 19.43 °N, 99.20 °W | Updated 28 seconds ago

Clear
Clear
52.9 °F
Feels Like 52.9 °F
N
0.0
Wind Variable Wind from NE
Gusts 0.0 mph

Today
High -- | Low -- °F
--% Chance of Precip.
Yesterday
High -- | Low -- °F
Precip. -- in
Pressure 30.38 in
Visibility 3.0 miles
Clouds Clear
Dew Point 42 °F
Humidity 65%
Rainfall 0.00 in
Snow Depth Not available.
7:13 AM 6:21 PM
Waning Gibbous, 64% visible
METAR MMTO 181047Z 30004KT 3SM BR HZ SKC 01/00 A3038 RMK BCFG FRMG
Pressure 30.38 in
Visibility 3.0 miles
Clouds Clear
Dew Point 42 °F
Humidity 65%
Rainfall 0.00 in
Snow Depth Not available.
7:13 AM 6:21 PM
Waning Gibbous, 64% visible
METAR MMTO 181047Z 30004KT 3SM BR HZ SKC 01/00 A3038 RMK BCFG FRMG

Get Your Daily Forecast Email!

Thanks for signing up!

Be on the lookout for a verification email in your inbox.

You'll start receiving the daily forecast at 8 AM.

×

10-Day Weather Forecast

No radar image for this location.
×

Almanac

Astronomy

Jan. 18, 2017 Rise Set
Actual Time
Civil Twilight
Nautical Twilight
Astronomical Twilight
Moon
Length of Visible Light
Length of Day
Tomorrow will be .
, % of the Moon is Illuminated

Today's Extremes

Country Highs Country Lows

Community

WunderPhotos

Upload Photos

1,962,540 photos uploaded!

WunderBlog® & News

Nearby

Air Quality

  Air Quality AQ Index Pollutant
Not available.

Snow Depth

Station Depth Elevation

Earthquake Activity

City Distance Mag. Time & Date
Minimum magnitude displayed is 2.5.

Coastal Water Temperatures

Place Temperature

Stations

Nearby Weather Stations

Station Location Temp. Windchill Dew Point Humidity Wind Precip. Elev Updated Type